»·PEaware :: N751LU KOTH-KRDD

N751LU :: KOTH-KRDD

FLIGHT INFORMATION

Flight Status: Arrived
Operator: Privately registered:
United States
More flights under this callsign
Pilot: Ewen S. (18928)
Aircraft: SOCATA TBM-900
(TBM9)
More flights by this aircraft type
Origin: KOTH North Bend Mun
United States
Destination: KRDD Redding Mun
United States
More flights between these airports :: More routes between these airports
Route: +OTH7 DEROY V287 OED V23 FOLDS
File this flight plan on PilotEdge
Remarks:
Altitude:
(Current/Filed)
23,000ft
Speed:
(Current/Filed)
285kts
Departed: 14-Oct-20 12:05 PM
Arrived: 14-Oct-20 12:53 PM
Distance/Time
Traveled:
195nm/0:47
Distance/Time
To Go:
Arrived

Flight Plot

Page will automatically refresh every two minutes.

Flight plan parsing failed; only flown route is shown


Map Options




Map Legend


Flown Route
Filed Route
Departure Airport
Arrival Airport
Navaid (VOR, NDB)
Fix

Horizontal Profiles

Position Reports

Time Latitude Longitude Heading Altitude Ground
Speed
14-Oct-20 11:47 43.414867 -124.244781 237 20ft 0kts
14-Oct-20 11:48 43.414867 -124.244781 237 21ft 0kts
14-Oct-20 11:49 43.414867 -124.244781 237 20ft 0kts
14-Oct-20 11:50 43.414867 -124.244782 237 20ft 0kts
14-Oct-20 11:51 43.414867 -124.244782 237 20ft 0kts
14-Oct-20 11:52 43.414867 -124.244782 237 20ft 0kts
14-Oct-20 11:53 43.414867 -124.244782 237 20ft 0kts
14-Oct-20 11:54 43.414867 -124.244782 237 20ft 0kts
14-Oct-20 11:55 43.414867 -124.244782 237 20ft 0kts
14-Oct-20 11:56 43.414867 -124.244782 237 20ft 0kts
14-Oct-20 11:57 43.414867 -124.244782 237 20ft 0kts
14-Oct-20 11:58 43.414867 -124.244782 237 20ft 0kts
14-Oct-20 11:59 43.414867 -124.244782 237 20ft 0kts
14-Oct-20 12:00 43.414855 -124.244860 278 20ft 3kts
14-Oct-20 12:01 43.414486 -124.243426 151 20ft 19kts
14-Oct-20 12:02 43.411888 -124.241307 147 20ft 16kts
14-Oct-20 12:03 43.409810 -124.238191 328 20ft 20kts
14-Oct-20 12:04 43.433925 -124.263611 283 1097ft 141kts
14-Oct-20 12:05 43.417025 -124.309286 239 3250ft 143kts
14-Oct-20 12:06 43.428982 -124.340309 32 5066ft 141kts
14-Oct-20 12:07 43.421353 -124.286462 114 7269ft 166kts
14-Oct-20 12:08 43.414050 -124.224483 83 9376ft 170kts
14-Oct-20 12:09 43.408070 -124.157174 136 11049ft 199kts
14-Oct-20 12:10 43.366164 -124.100882 138 12758ft 217kts
14-Oct-20 12:11 43.321553 -124.039889 138 15144ft 230kts
14-Oct-20 12:12 43.274585 -123.975826 138 17484ft 245kts
14-Oct-20 12:13 43.224640 -123.907836 138 19713ft 252kts
14-Oct-20 12:14 43.173904 -123.838929 138 21757ft 257kts
14-Oct-20 12:15 43.122133 -123.768814 138 23523ft 266kts
14-Oct-20 12:16 43.063336 -123.689396 137 23546ft 314kts
14-Oct-20 12:17 42.996795 -123.599746 137 23537ft 343kts
14-Oct-20 12:18 42.926869 -123.505888 137 23540ft 352kts
14-Oct-20 12:19 42.856245 -123.411442 137 23521ft 348kts
14-Oct-20 12:20 42.786296 -123.318205 138 23514ft 345kts
14-Oct-20 12:21 42.716627 -123.225678 138 23521ft 344kts
14-Oct-20 12:22 42.647249 -123.133774 138 23495ft 344kts
14-Oct-20 12:23 42.577864 -123.042197 138 23476ft 343kts
14-Oct-20 12:24 42.508957 -122.951506 138 23458ft 344kts
14-Oct-20 12:25 42.427242 -122.907493 183 23453ft 320kts
14-Oct-20 12:26 42.337397 -122.898007 183 23449ft 320kts
14-Oct-20 12:27 42.247576 -122.888634 183 23451ft 320kts
14-Oct-20 12:28 42.157804 -122.879305 182 23454ft 319kts
14-Oct-20 12:29 42.068643 -122.870046 183 23454ft 319kts
14-Oct-20 12:30 41.979206 -122.860862 181 23449ft 319kts
14-Oct-20 12:31 41.891359 -122.851707 182 23431ft 317kts
14-Oct-20 12:32 41.802907 -122.842612 182 23424ft 316kts
14-Oct-20 12:33 41.714863 -122.833563 182 23429ft 314kts
14-Oct-20 12:34 41.627112 -122.824568 182 23431ft 313kts
14-Oct-20 12:35 41.539570 -122.815618 182 23431ft 313kts
14-Oct-20 12:36 41.447701 -122.805540 173 22177ft 342kts
14-Oct-20 12:37 41.354339 -122.765418 166 20808ft 351kts
14-Oct-20 12:38 41.259994 -122.724899 166 19412ft 353kts
14-Oct-20 12:39 41.166530 -122.684881 166 18030ft 339kts
14-Oct-20 12:40 41.077897 -122.647078 166 16612ft 324kts
14-Oct-20 12:41 40.991604 -122.610369 166 15223ft 318kts
14-Oct-20 12:42 40.906401 -122.574195 165 13838ft 315kts
14-Oct-20 12:43 40.825052 -122.539769 165 12465ft 312kts
14-Oct-20 12:45 40.741521 -122.504526 163 11042ft 309kts
14-Oct-20 12:46 40.672410 -122.442844 143 9604ft 269kts
14-Oct-20 12:47 40.617393 -122.392424 142 7542ft 222kts
14-Oct-20 12:48 40.573535 -122.352347 141 5030ft 155kts
14-Oct-20 12:49 40.539348 -122.322311 164 2461ft 154kts
14-Oct-20 12:50 40.499543 -122.315759 174 2125ft 122kts
14-Oct-20 12:51 40.477513 -122.298470 49 1432ft 98kts
14-Oct-20 12:52 40.500450 -122.294856 3 562ft 76kts
14-Oct-20 12:53 40.508277 -122.295851 294 505ft 0kts
14-Oct-20 12:54 40.508585 -122.296798 257 505ft 9kts
14-Oct-20 12:55 40.509131 -122.298012 109 505ft 5kts
14-Oct-20 12:56 40.508960 -122.297998 180 505ft 0kts

Navigation Log

Ident Type
Flight plan parsing failed, navigation log unavailable